createdAt,value
2023-05-19T00:01:14.487Z,22.68
2023-05-19T00:03:50.886Z,22.41
2023-05-19T00:06:20.574Z,22.33
2023-05-19T00:08:48.381Z,22.50
2023-05-19T00:11:15.744Z,22.41
2023-05-19T00:13:43.005Z,22.15
2023-05-19T00:16:11.320Z,22.40
2023-05-19T00:18:38.484Z,22.54
2023-05-19T00:21:07.234Z,22.65
2023-05-19T00:23:34.327Z,22.55
2023-05-19T00:26:01.437Z,22.71
2023-05-19T00:28:28.528Z,22.77
2023-05-19T00:30:56.376Z,22.84
2023-05-19T00:33:23.506Z,22.79
2023-05-19T00:35:50.609Z,22.73
2023-05-19T00:38:19.342Z,22.54
2023-05-19T00:40:46.530Z,22.66
2023-05-19T00:43:13.794Z,22.35
2023-05-19T00:45:41.136Z,22.06
2023-05-19T00:48:08.708Z,22.56
2023-05-19T00:50:36.357Z,22.00
2023-05-19T00:53:04.180Z,22.63
2023-05-19T00:55:33.713Z,22.60
2023-05-19T00:58:01.726Z,22.56
2023-05-19T01:00:30.375Z,22.42
2023-05-19T01:02:58.120Z,22.36
2023-05-19T01:05:26.160Z,21.66
2023-05-19T01:07:54.117Z,21.80
2023-05-19T01:10:21.261Z,21.58
2023-05-19T01:12:50.037Z,21.85
2023-05-19T01:15:17.183Z,21.85
2023-05-19T01:17:48.754Z,22.42
2023-05-19T01:20:20.589Z,22.62
2023-05-19T01:23:07.238Z,22.90
2023-05-19T01:25:46.298Z,22.29
2023-05-19T01:28:25.316Z,22.95
2023-05-19T01:30:55.878Z,23.33
2023-05-19T01:33:23.921Z,24.17
2023-05-19T01:35:51.532Z,23.15
2023-05-19T01:38:19.533Z,23.56
2023-05-19T01:40:49.774Z,23.22
2023-05-19T01:43:18.008Z,23.75
2023-05-19T01:45:45.276Z,22.86
2023-05-19T01:48:14.814Z,23.40
2023-05-19T01:50:42.192Z,23.44
2023-05-19T01:53:09.697Z,22.69
2023-05-19T01:55:41.934Z,23.10
2023-05-19T01:58:12.887Z,22.53
2023-05-19T02:00:44.432Z,22.47
2023-05-19T02:03:18.605Z,22.10
2023-05-19T02:05:52.600Z,21.70
2023-05-19T02:08:24.793Z,21.58
2023-05-19T02:10:55.491Z,21.35
2023-05-19T02:13:24.698Z,22.05
2023-05-19T02:15:54.687Z,21.28
2023-05-19T02:18:23.667Z,22.00
2023-05-19T02:20:51.287Z,22.59
2023-05-19T02:23:18.397Z,22.72
2023-05-19T02:25:45.571Z,22.60
2023-05-19T02:28:12.691Z,22.24
2023-05-19T02:30:39.888Z,22.15
2023-05-19T02:33:07.016Z,22.10
2023-05-19T02:35:35.746Z,22.43
2023-05-19T02:38:03.014Z,22.48
2023-05-19T02:40:30.422Z,22.54
2023-05-19T02:42:57.800Z,23.16
2023-05-19T02:45:24.996Z,22.81
2023-05-19T02:47:52.265Z,22.94
2023-05-19T02:50:19.450Z,22.51
2023-05-19T02:52:48.054Z,22.51
2023-05-19T02:55:15.210Z,22.36
2023-05-19T02:57:42.355Z,22.96
2023-05-19T03:00:10.556Z,23.04
2023-05-19T03:02:37.797Z,22.97
2023-05-19T03:05:05.447Z,23.51
2023-05-19T03:07:32.588Z,23.53
2023-05-19T03:10:01.374Z,22.37
2023-05-19T03:12:28.539Z,22.10
2023-05-19T03:14:56.966Z,22.27
2023-05-19T03:17:24.146Z,21.78
2023-05-19T03:19:51.290Z,21.67
2023-05-19T03:22:18.961Z,21.47
2023-05-19T03:24:46.056Z,21.50
2023-05-19T03:27:14.641Z,21.07
2023-05-19T03:29:41.776Z,21.45
2023-05-19T03:32:08.985Z,21.16
2023-05-19T03:34:36.797Z,21.18
2023-05-19T03:37:04.263Z,21.52
2023-05-19T03:39:31.434Z,21.52
2023-05-19T03:41:58.551Z,21.79
2023-05-19T03:44:27.645Z,21.68
2023-05-19T03:46:54.828Z,21.20
2023-05-19T03:50:00.327Z,20.93
2023-05-19T03:53:02.667Z,21.54
2023-05-19T03:55:33.211Z,20.64
2023-05-19T03:58:00.343Z,21.00
2023-05-19T04:00:29.065Z,20.66
2023-05-19T04:02:56.295Z,20.84
2023-05-19T04:05:23.563Z,21.70
2023-05-19T04:07:50.748Z,20.85
2023-05-19T04:10:17.934Z,20.77
2023-05-19T04:12:45.226Z,21.26
2023-05-19T04:15:12.512Z,21.22
2023-05-19T04:17:42.231Z,20.99
2023-05-19T04:20:10.516Z,20.85
2023-05-19T04:22:37.641Z,20.59
2023-05-19T04:25:05.073Z,20.39
2023-05-19T04:27:32.849Z,20.49
2023-05-19T04:30:00.567Z,21.16
2023-05-19T04:32:27.767Z,20.64
2023-05-19T04:34:57.340Z,20.09
2023-05-19T04:37:26.270Z,20.53
2023-05-19T04:39:54.394Z,20.52
2023-05-19T04:42:24.421Z,20.89
2023-05-19T04:44:51.911Z,20.67
2023-05-19T04:47:20.344Z,20.78
2023-05-19T04:49:48.425Z,21.58
2023-05-19T04:52:17.162Z,21.18
2023-05-19T04:54:44.747Z,21.46
2023-05-19T04:57:13.728Z,21.41
2023-05-19T04:59:40.846Z,21.26
2023-05-19T05:02:09.058Z,21.03
2023-05-19T05:04:37.783Z,20.94
2023-05-19T05:07:05.146Z,20.78
2023-05-19T05:09:34.713Z,21.00
2023-05-19T05:12:03.279Z,20.52
2023-05-19T05:14:30.879Z,21.09
2023-05-19T05:16:58.330Z,21.19
2023-05-19T05:19:26.581Z,20.56
2023-05-19T05:21:54.780Z,20.24
2023-05-19T05:24:22.429Z,20.61
2023-05-19T05:26:55.859Z,20.68
2023-05-19T05:29:23.641Z,20.15
2023-05-19T05:31:50.988Z,20.85
2023-05-19T05:34:18.816Z,20.55
2023-05-19T05:36:46.549Z,20.07
2023-05-19T05:39:13.818Z,20.35
2023-05-19T05:41:42.970Z,20.14
2023-05-19T05:44:13.543Z,20.33
2023-05-19T05:46:44.032Z,20.21
2023-05-19T05:49:11.990Z,19.56
2023-05-19T05:51:42.905Z,20.35
2023-05-19T05:54:12.828Z,20.49
2023-05-19T05:56:45.334Z,19.99
2023-05-19T05:59:14.896Z,19.89
2023-05-19T06:01:42.187Z,19.65
2023-05-19T06:04:09.817Z,19.79
2023-05-19T06:06:37.110Z,19.51
2023-05-19T06:09:05.295Z,19.59
2023-05-19T06:11:33.004Z,19.12
2023-05-19T06:14:00.493Z,19.59
2023-05-19T06:16:48.041Z,20.18
2023-05-19T06:19:17.234Z,19.28
2023-05-19T06:21:45.079Z,19.73
2023-05-19T06:24:12.585Z,19.07
2023-05-19T06:26:39.783Z,20.02
2023-05-19T06:29:07.297Z,20.04
2023-05-19T06:31:34.603Z,20.06
2023-05-19T06:34:15.434Z,19.99
2023-05-19T06:36:42.582Z,19.46
2023-05-19T06:39:10.593Z,19.60
2023-05-19T06:41:37.936Z,19.23
2023-05-19T06:44:07.486Z,18.88
2023-05-19T06:46:35.047Z,19.24
2023-05-19T06:49:02.233Z,20.40
2023-05-19T06:51:34.899Z,19.34
2023-05-19T06:54:02.060Z,19.25
2023-05-19T06:56:29.302Z,19.65
2023-05-19T06:58:56.562Z,19.24
2023-05-19T07:01:30.150Z,18.60
2023-05-19T07:03:58.740Z,20.37
2023-05-19T07:06:25.944Z,19.09
2023-05-19T07:08:55.154Z,18.79
2023-05-19T07:11:22.879Z,18.62
2023-05-19T07:13:50.188Z,18.86
2023-05-19T07:16:23.533Z,18.33
2023-05-19T07:18:50.692Z,18.47
2023-05-19T07:21:18.077Z,17.89
2023-05-19T07:23:46.957Z,18.53
2023-05-19T07:26:15.705Z,18.74
2023-05-19T07:28:42.880Z,18.28
2023-05-19T07:31:10.138Z,17.72
2023-05-19T07:33:37.324Z,17.60
2023-05-19T07:36:05.073Z,17.37
2023-05-19T07:38:32.305Z,18.23
2023-05-19T07:40:59.540Z,17.99
2023-05-19T07:43:28.897Z,17.73
2023-05-19T07:45:57.409Z,17.78
2023-05-19T07:48:25.332Z,18.45
2023-05-19T07:50:52.927Z,18.03
2023-05-19T07:53:20.578Z,17.97
2023-05-19T07:55:47.738Z,17.80
2023-05-19T07:58:14.942Z,18.34
2023-05-19T08:00:43.466Z,18.50
2023-05-19T08:03:10.851Z,19.35
2023-05-19T08:05:38.116Z,18.83
2023-05-19T08:08:05.483Z,18.31
2023-05-19T08:10:33.342Z,18.39
2023-05-19T08:13:00.829Z,19.10
2023-05-19T08:15:28.825Z,18.68
2023-05-19T08:17:57.549Z,18.58
2023-05-19T08:20:24.893Z,19.29
2023-05-19T08:22:52.542Z,18.88
2023-05-19T08:25:19.876Z,19.01
2023-05-19T08:27:47.033Z,19.33
2023-05-19T08:30:14.260Z,19.53
2023-05-19T08:32:41.389Z,19.21
2023-05-19T08:35:10.736Z,19.45
2023-05-19T08:37:38.274Z,19.39
2023-05-19T08:40:06.255Z,20.04
2023-05-19T08:42:33.463Z,20.23
2023-05-19T08:45:00.981Z,20.37
2023-05-19T08:47:29.051Z,20.55
2023-05-19T08:50:00.704Z,20.91
2023-05-19T08:52:33.111Z,20.51
2023-05-19T08:55:09.489Z,20.70
2023-05-19T08:57:36.958Z,21.39
2023-05-19T09:00:04.481Z,21.03
2023-05-19T09:02:32.833Z,20.43
2023-05-19T09:05:02.156Z,20.84
2023-05-19T09:07:31.594Z,21.07
2023-05-19T09:09:58.931Z,20.74
2023-05-19T09:12:26.551Z,20.57
2023-05-19T09:14:53.753Z,20.95
2023-05-19T09:17:21.635Z,20.79
2023-05-19T09:19:48.968Z,21.04
2023-05-19T09:22:16.692Z,20.33
2023-05-19T09:24:45.654Z,20.79
2023-05-19T09:27:14.874Z,20.84
2023-05-19T09:29:42.308Z,20.91
2023-05-19T09:32:09.420Z,20.82
2023-05-19T09:34:40.308Z,20.75
2023-05-19T09:37:08.024Z,20.48
2023-05-19T09:39:35.139Z,20.19
2023-05-19T09:42:04.724Z,22.40
2023-05-19T09:44:32.079Z,22.01
2023-05-19T09:46:59.199Z,20.62
2023-05-19T09:49:26.997Z,21.27
2023-05-19T09:51:54.490Z,21.86
2023-05-19T09:54:22.430Z,21.23
2023-05-19T09:56:56.679Z,20.76
2023-05-19T09:59:26.090Z,21.06
2023-05-19T10:01:54.767Z,21.16
2023-05-19T10:04:23.584Z,21.38
2023-05-19T10:06:51.189Z,20.92
2023-05-19T10:09:19.027Z,22.45
2023-05-19T10:11:46.445Z,21.31
2023-05-19T10:14:14.465Z,20.79
2023-05-19T10:16:44.875Z,21.37
2023-05-19T10:19:13.106Z,21.12
2023-05-19T10:21:40.302Z,21.23
2023-05-19T10:24:07.496Z,21.14
2023-05-19T10:26:36.866Z,21.69
2023-05-19T10:29:05.240Z,21.31
2023-05-19T10:31:34.396Z,21.10
2023-05-19T10:34:10.263Z,20.87
2023-05-19T10:36:44.323Z,21.26
2023-05-19T10:39:17.061Z,22.21
2023-05-19T10:41:49.047Z,20.98
2023-05-19T10:44:20.804Z,21.30
2023-05-19T10:46:48.217Z,21.26
2023-05-19T10:49:21.791Z,20.87
2023-05-19T10:51:49.330Z,20.44
2023-05-19T10:54:16.616Z,20.33
2023-05-19T10:56:44.351Z,19.98
2023-05-19T10:59:30.712Z,19.56
2023-05-19T11:01:58.201Z,20.50
2023-05-19T11:04:45.532Z,19.89
2023-05-19T11:07:15.929Z,20.18
2023-05-19T11:09:43.151Z,20.40
2023-05-19T11:12:10.592Z,19.93
2023-05-19T11:14:38.459Z,19.69
2023-05-19T11:17:13.175Z,19.65
2023-05-19T11:19:52.469Z,19.79
2023-05-19T11:22:23.254Z,19.87
2023-05-19T11:24:50.904Z,19.80
2023-05-19T11:27:21.558Z,19.95
2023-05-19T11:29:49.127Z,19.83
2023-05-19T11:32:16.524Z,19.85
2023-05-19T11:34:45.887Z,19.63
2023-05-19T11:37:13.058Z,19.52
2023-05-19T11:39:40.887Z,18.96
2023-05-19T11:42:09.144Z,19.30
2023-05-19T11:44:36.388Z,19.69
2023-05-19T11:47:03.548Z,19.60
2023-05-19T11:49:30.984Z,19.27
2023-05-19T11:52:00.304Z,19.51
2023-05-19T11:54:29.838Z,19.11
2023-05-19T11:57:00.237Z,19.24
2023-05-19T11:59:31.748Z,19.60
2023-05-19T12:02:03.686Z,19.24
2023-05-19T12:04:31.039Z,19.78
2023-05-19T12:06:59.737Z,19.42
2023-05-19T12:09:28.602Z,18.75
2023-05-19T12:11:56.018Z,19.66
2023-05-19T12:14:23.472Z,19.06
2023-05-19T12:16:51.299Z,19.66
2023-05-19T12:19:19.074Z,19.29
2023-05-19T12:21:47.114Z,19.00
2023-05-19T12:24:16.304Z,19.34
2023-05-19T12:26:43.919Z,19.60
2023-05-19T12:29:13.123Z,18.84
2023-05-19T12:31:40.450Z,19.38
2023-05-19T12:34:08.270Z,19.55
2023-05-19T12:36:35.509Z,19.61
2023-05-19T12:39:04.892Z,19.17
2023-05-19T12:41:34.369Z,19.06
2023-05-19T12:44:01.571Z,18.93
2023-05-19T12:46:33.343Z,19.05
2023-05-19T12:49:00.616Z,18.73
2023-05-19T12:51:28.230Z,18.25
2023-05-19T12:53:55.497Z,18.91
2023-05-19T12:56:25.531Z,19.21
2023-05-19T12:58:55.409Z,18.02
2023-05-19T13:01:22.874Z,18.59
2023-05-19T13:03:50.380Z,18.52
2023-05-19T13:06:17.807Z,19.63
2023-05-19T13:08:46.856Z,18.79
2023-05-19T13:11:14.122Z,19.13
2023-05-19T13:13:41.325Z,19.14
2023-05-19T13:16:10.149Z,18.97
2023-05-19T13:18:37.365Z,18.46
2023-05-19T13:21:04.878Z,18.64
2023-05-19T13:23:32.509Z,19.06
2023-05-19T13:25:59.609Z,18.93
2023-05-19T13:28:26.713Z,18.84
2023-05-19T13:30:53.851Z,19.01
2023-05-19T13:33:22.835Z,19.20
2023-05-19T13:35:50.116Z,19.70
2023-05-19T13:38:17.226Z,18.78
2023-05-19T13:40:44.468Z,18.52
2023-05-19T13:43:11.704Z,18.78
2023-05-19T13:45:38.856Z,19.01
2023-05-19T13:48:06.435Z,19.09
2023-05-19T13:50:35.046Z,19.51
2023-05-19T13:53:04.497Z,19.05
2023-05-19T13:55:31.683Z,19.33
2023-05-19T13:57:58.848Z,19.24
2023-05-19T14:00:26.074Z,18.77
2023-05-19T14:02:53.388Z,19.44
2023-05-19T14:05:20.652Z,19.48
2023-05-19T14:07:49.243Z,19.26
2023-05-19T14:10:16.410Z,19.14
2023-05-19T14:13:04.884Z,19.54
2023-05-19T14:15:30.695Z,19.14
2023-05-19T14:17:57.988Z,18.89
2023-05-19T14:20:26.300Z,19.07
2023-05-19T14:22:55.936Z,19.98
2023-05-19T14:25:23.203Z,19.99
2023-05-19T14:27:50.429Z,20.32
2023-05-19T14:30:17.826Z,19.41
2023-05-19T14:32:44.970Z,19.61
2023-05-19T14:35:12.141Z,19.60
2023-05-19T14:37:39.260Z,19.42
2023-05-19T14:40:08.747Z,18.96
2023-05-19T14:42:35.921Z,19.06
2023-05-19T14:45:03.313Z,19.33
2023-05-19T14:47:30.564Z,18.96
2023-05-19T14:49:57.784Z,19.12
2023-05-19T14:52:24.910Z,19.33
2023-05-19T14:54:52.081Z,19.25
2023-05-19T14:57:20.883Z,19.81
2023-05-19T14:59:48.272Z,19.43
2023-05-19T15:02:15.457Z,18.98
2023-05-19T15:04:42.657Z,19.38
2023-05-19T15:07:11.304Z,19.64
2023-05-19T15:09:38.619Z,19.44
2023-05-19T15:12:06.066Z,19.27
2023-05-19T15:14:35.132Z,20.07
2023-05-19T15:17:03.119Z,19.95
2023-05-19T15:19:30.458Z,19.65
2023-05-19T15:21:57.678Z,19.36
2023-05-19T15:24:24.863Z,19.33
2023-05-19T15:26:52.058Z,18.87
2023-05-19T15:29:19.823Z,18.59
2023-05-19T15:31:49.758Z,18.69
2023-05-19T15:34:16.933Z,17.96
2023-05-19T15:36:44.178Z,18.02
2023-05-19T15:39:11.337Z,18.25
2023-05-19T15:41:38.677Z,18.05
2023-05-19T15:44:05.993Z,17.79
2023-05-19T15:46:33.808Z,17.69
2023-05-19T15:49:02.590Z,18.21
2023-05-19T15:51:30.039Z,17.84
2023-05-19T15:53:57.302Z,17.48
2023-05-19T15:56:24.515Z,17.93
2023-05-19T15:58:51.669Z,18.28
2023-05-19T16:01:18.868Z,18.15
2023-05-19T16:03:46.230Z,17.68
2023-05-19T16:06:14.998Z,18.30
2023-05-19T16:08:42.173Z,18.11
2023-05-19T16:11:09.413Z,18.23
2023-05-19T16:13:37.114Z,18.41
2023-05-19T16:16:04.475Z,18.34
2023-05-19T16:18:31.655Z,18.30
2023-05-19T16:20:58.855Z,18.30
2023-05-19T16:23:27.747Z,18.32
2023-05-19T16:25:55.598Z,18.63
2023-05-19T16:28:24.602Z,18.39
2023-05-19T16:30:52.190Z,18.54
2023-05-19T16:33:19.372Z,18.68
2023-05-19T16:35:46.552Z,18.87
2023-05-19T16:38:13.848Z,18.75
2023-05-19T16:40:42.804Z,18.74
2023-05-19T16:43:09.910Z,18.85
2023-05-19T16:45:37.064Z,18.91
2023-05-19T16:48:04.342Z,18.92
2023-05-19T16:50:31.545Z,19.20
2023-05-19T16:52:58.773Z,18.77
2023-05-19T16:55:25.930Z,18.58
2023-05-19T16:57:54.698Z,19.16
2023-05-19T17:00:21.947Z,19.25
2023-05-19T17:02:49.267Z,19.17
2023-05-19T17:05:16.575Z,19.39
2023-05-19T17:07:43.726Z,19.27
2023-05-19T17:10:10.937Z,18.72
2023-05-19T17:12:38.145Z,18.99
2023-05-19T17:15:08.017Z,18.79
2023-05-19T17:17:35.171Z,19.51
2023-05-19T17:20:02.332Z,19.32
2023-05-19T17:22:30.371Z,18.92
2023-05-19T17:24:57.659Z,18.70
2023-05-19T17:27:24.907Z,19.40
2023-05-19T17:29:52.068Z,19.49
2023-05-19T17:32:20.939Z,18.63
2023-05-19T17:34:48.221Z,19.49
2023-05-19T17:37:15.595Z,19.35
2023-05-19T17:39:42.802Z,19.04
2023-05-19T17:42:09.999Z,19.69
2023-05-19T17:44:37.393Z,19.74
2023-05-19T17:47:04.754Z,19.50
2023-05-19T17:49:33.563Z,19.65
2023-05-19T17:52:00.974Z,19.52
2023-05-19T17:54:28.619Z,19.54
2023-05-19T17:56:58.186Z,20.24
2023-05-19T17:59:26.035Z,19.67
2023-05-19T18:01:53.587Z,19.86
2023-05-19T18:04:21.364Z,20.33
2023-05-19T18:06:51.400Z,19.94
2023-05-19T18:09:19.381Z,19.87
2023-05-19T18:11:46.657Z,20.50
2023-05-19T18:14:14.180Z,20.62
2023-05-19T18:16:41.357Z,20.42
2023-05-19T18:19:09.198Z,20.81
2023-05-19T18:21:36.592Z,20.17
2023-05-19T18:24:05.514Z,20.51
2023-05-19T18:26:33.931Z,20.71
2023-05-19T18:29:01.614Z,20.41
2023-05-19T18:31:29.504Z,20.41
2023-05-19T18:33:56.850Z,20.43
2023-05-19T18:36:24.455Z,20.59
2023-05-19T18:38:51.770Z,20.43
2023-05-19T18:41:21.193Z,20.51
2023-05-19T18:43:48.954Z,20.47
2023-05-19T18:46:17.992Z,20.50
2023-05-19T18:48:45.583Z,20.29
2023-05-19T18:51:13.014Z,20.79
2023-05-19T18:53:40.150Z,20.38
2023-05-19T18:56:08.046Z,20.63
2023-05-19T18:58:36.659Z,20.43
2023-05-19T19:01:04.107Z,20.94
2023-05-19T19:03:31.473Z,20.62
2023-05-19T19:05:59.540Z,20.38
2023-05-19T19:08:26.798Z,20.56
2023-05-19T19:10:54.054Z,20.50
2023-05-19T19:13:21.274Z,20.63
2023-05-19T19:15:49.921Z,20.56
2023-05-19T19:18:17.722Z,20.69
2023-05-19T19:20:45.972Z,20.93
2023-05-19T19:23:13.084Z,20.41
2023-05-19T19:25:40.785Z,20.40
2023-05-19T19:28:08.943Z,20.53
2023-05-19T19:30:36.356Z,20.67
2023-05-19T19:33:06.814Z,20.27
2023-05-19T19:35:34.280Z,20.54
2023-05-19T19:38:01.519Z,20.54
2023-05-19T19:40:28.868Z,20.66
2023-05-19T19:42:56.105Z,20.48
2023-05-19T19:45:23.215Z,20.65
2023-05-19T19:47:50.380Z,20.61
2023-05-19T19:50:19.085Z,20.73
2023-05-19T19:52:46.239Z,20.49
2023-05-19T19:55:13.552Z,20.76
2023-05-19T19:57:40.823Z,20.73
2023-05-19T20:00:08.775Z,20.56
2023-05-19T20:02:36.244Z,21.07
2023-05-19T20:05:03.869Z,20.54
2023-05-19T20:07:33.056Z,20.88
2023-05-19T20:10:00.293Z,21.24
2023-05-19T20:12:28.030Z,20.74
2023-05-19T20:14:55.915Z,20.73
2023-05-19T20:17:23.098Z,20.18
2023-05-19T20:19:50.184Z,20.43
2023-05-19T20:22:17.303Z,20.08
2023-05-19T20:24:45.898Z,19.92
2023-05-19T20:27:13.066Z,20.02
2023-05-19T20:29:40.210Z,19.52
2023-05-19T20:32:07.485Z,19.71
2023-05-19T20:34:34.660Z,19.71
2023-05-19T20:37:01.872Z,19.90
2023-05-19T20:39:28.982Z,19.56
2023-05-19T20:41:57.748Z,20.04
2023-05-19T20:44:25.075Z,20.18
2023-05-19T20:46:52.217Z,19.40
2023-05-19T20:49:19.410Z,19.40
2023-05-19T20:51:46.513Z,19.91
2023-05-19T20:54:13.594Z,19.42
2023-05-19T20:56:40.741Z,20.21
2023-05-19T20:59:09.537Z,19.83
2023-05-19T21:01:36.935Z,19.84
2023-05-19T21:04:04.167Z,19.71
2023-05-19T21:06:31.296Z,19.58
2023-05-19T21:08:58.471Z,19.75
2023-05-19T21:11:25.605Z,19.96
2023-05-19T21:13:52.926Z,19.71
2023-05-19T21:16:21.592Z,19.64
2023-05-19T21:18:48.720Z,20.20
2023-05-19T21:21:15.801Z,19.42
2023-05-19T21:23:43.072Z,19.55
2023-05-19T21:26:10.191Z,20.08
2023-05-19T21:28:37.308Z,20.15
2023-05-19T21:31:04.657Z,20.13
2023-05-19T21:33:33.651Z,19.38
2023-05-19T21:36:00.776Z,19.26
2023-05-19T21:38:28.148Z,19.65
2023-05-19T21:40:55.415Z,19.88
2023-05-19T21:43:22.744Z,19.74
2023-05-19T21:45:49.825Z,20.06
2023-05-19T21:48:17.005Z,19.71
2023-05-19T21:50:45.722Z,19.87
2023-05-19T21:53:12.825Z,19.23
2023-05-19T21:55:40.008Z,19.43
2023-05-19T21:58:07.158Z,19.36
2023-05-19T22:00:34.465Z,20.04
2023-05-19T22:03:01.869Z,19.75
2023-05-19T22:05:29.685Z,19.24
2023-05-19T22:07:58.412Z,19.85
2023-05-19T22:10:25.553Z,19.59
2023-05-19T22:12:52.708Z,20.20
2023-05-19T22:15:20.464Z,20.25
2023-05-19T22:17:47.565Z,19.49
2023-05-19T22:20:14.727Z,19.49
2023-05-19T22:22:42.504Z,20.10
2023-05-19T22:25:11.526Z,19.31
2023-05-19T22:27:38.712Z,19.54
2023-05-19T22:30:06.505Z,20.28
2023-05-19T22:32:33.590Z,20.09
2023-05-19T22:35:00.797Z,20.29
2023-05-19T22:37:27.892Z,20.33
2023-05-19T22:39:55.057Z,20.15
2023-05-19T22:42:23.586Z,19.70
2023-05-19T22:44:50.737Z,19.34
2023-05-19T22:47:18.145Z,19.84
2023-05-19T22:49:45.304Z,19.59
2023-05-19T22:52:13.196Z,20.28
2023-05-19T22:54:40.315Z,20.22
2023-05-19T22:57:07.460Z,20.09
2023-05-19T22:59:36.006Z,19.52
2023-05-19T23:02:03.101Z,20.28
2023-05-19T23:04:30.513Z,22.96
2023-05-19T23:06:58.282Z,22.18
2023-05-19T23:09:25.480Z,22.05
2023-05-19T23:11:52.615Z,22.20
2023-05-19T23:14:19.808Z,21.68
2023-05-19T23:16:48.741Z,21.16
2023-05-19T23:19:15.920Z,20.68
2023-05-19T23:21:44.494Z,21.10
2023-05-19T23:24:11.642Z,21.17
2023-05-19T23:26:39.290Z,21.39
2023-05-19T23:29:06.413Z,21.46
2023-05-19T23:31:34.969Z,21.13
2023-05-19T23:34:03.966Z,20.72
2023-05-19T23:36:31.074Z,20.87
2023-05-19T23:39:00.278Z,21.04
2023-05-19T23:41:27.428Z,20.51
2023-05-19T23:43:54.679Z,20.77
2023-05-19T23:46:21.892Z,20.54
2023-05-19T23:48:49.175Z,20.64
2023-05-19T23:51:17.818Z,20.55
2023-05-19T23:53:44.908Z,20.90
2023-05-19T23:56:11.996Z,20.20
2023-05-19T23:58:39.099Z,20.54
